createdAt,value
2023-04-14T00:00:56.001Z,4.32
2023-04-14T00:03:25.560Z,4.26
2023-04-14T00:05:54.803Z,4.19
2023-04-14T00:08:23.913Z,4.16
2023-04-14T00:10:53.036Z,4.11
2023-04-14T00:13:22.166Z,4.11
2023-04-14T00:15:52.722Z,4.04
2023-04-14T00:18:21.983Z,3.91
2023-04-14T00:20:51.177Z,3.90
2023-04-14T00:23:20.234Z,3.88
2023-04-14T00:25:50.507Z,3.92
2023-04-14T00:28:19.600Z,3.95
2023-04-14T00:30:51.016Z,4.04
2023-04-14T00:33:20.203Z,4.10
2023-04-14T00:35:49.405Z,4.13
2023-04-14T00:38:18.517Z,4.01
2023-04-14T00:40:47.750Z,3.94
2023-04-14T00:43:20.271Z,3.89
2023-04-14T00:45:52.428Z,3.93
2023-04-14T00:48:21.703Z,3.89
2023-04-14T00:50:50.911Z,3.88
2023-04-14T00:53:20.805Z,3.93
2023-04-14T00:55:49.961Z,3.96
2023-04-14T00:58:19.172Z,3.80
2023-04-14T01:00:53.774Z,3.63
2023-04-14T01:03:25.374Z,3.72
2023-04-14T01:05:54.637Z,3.61
2023-04-14T01:08:24.470Z,3.49
2023-04-14T01:11:10.008Z,3.49
2023-04-14T01:13:50.012Z,3.57
2023-04-14T01:16:28.618Z,3.53
2023-04-14T01:19:07.936Z,3.41
2023-04-14T01:21:39.525Z,3.15
2023-04-14T01:24:27.289Z,2.92
2023-04-14T01:27:06.901Z,2.91
2023-04-14T01:30:04.119Z,2.91
2023-04-14T01:32:40.748Z,2.88
2023-04-14T01:35:14.422Z,2.81
2023-04-14T01:37:48.555Z,2.82
2023-04-14T01:40:20.881Z,2.83
2023-04-14T01:42:57.348Z,2.87
2023-04-14T01:45:29.883Z,3.05
2023-04-14T01:48:01.352Z,3.11
2023-04-14T01:50:32.094Z,3.15
2023-04-14T01:53:02.579Z,3.12
2023-04-14T01:55:34.445Z,3.14
2023-04-14T01:58:04.889Z,3.14
2023-04-14T02:00:36.652Z,3.07
2023-04-14T02:03:08.357Z,2.98
2023-04-14T02:05:40.156Z,2.95
2023-04-14T02:08:13.476Z,2.88
2023-04-14T02:10:46.910Z,2.97
2023-04-14T02:13:18.755Z,2.98
2023-04-14T02:15:50.882Z,2.99
2023-04-14T02:18:24.359Z,2.84
2023-04-14T02:20:57.353Z,2.68
2023-04-14T02:23:26.700Z,2.81
2023-04-14T02:26:00.353Z,2.83
2023-04-14T02:28:36.284Z,2.87
2023-04-14T02:31:10.960Z,2.88
2023-04-14T02:33:42.051Z,2.85
2023-04-14T02:36:18.039Z,2.73
2023-04-14T02:38:52.562Z,2.65
2023-04-14T02:41:26.049Z,2.57
2023-04-14T02:44:02.059Z,2.49
2023-04-14T02:46:36.977Z,2.44
2023-04-14T02:49:12.826Z,2.54
2023-04-14T02:51:45.519Z,2.51
2023-04-14T02:54:16.400Z,2.37
2023-04-14T02:56:49.322Z,2.31
2023-04-14T02:59:23.782Z,2.29
2023-04-14T03:02:04.559Z,2.37
2023-04-14T03:04:39.118Z,2.18
2023-04-14T03:07:15.753Z,2.02
2023-04-14T03:09:45.796Z,1.95
2023-04-14T03:12:16.560Z,1.94
2023-04-14T03:14:46.580Z,2.01
2023-04-14T03:17:18.344Z,2.10
2023-04-14T03:19:51.481Z,2.16
2023-04-14T03:22:22.028Z,2.23
2023-04-14T03:24:51.507Z,2.28
2023-04-14T03:27:26.047Z,2.30
2023-04-14T03:29:59.292Z,2.27
2023-04-14T03:32:35.636Z,2.35
2023-04-14T03:35:07.834Z,2.35
2023-04-14T03:37:40.850Z,2.34
2023-04-14T03:40:12.424Z,2.25
2023-04-14T03:42:44.656Z,2.19
2023-04-14T03:45:17.022Z,2.16
2023-04-14T03:47:47.068Z,2.23
2023-04-14T03:50:21.108Z,2.22
2023-04-14T03:52:52.632Z,2.24
2023-04-14T03:55:24.699Z,2.29
2023-04-14T03:57:55.909Z,2.33
2023-04-14T04:00:28.289Z,2.27
2023-04-14T04:02:59.027Z,2.22
2023-04-14T04:05:30.640Z,2.07
2023-04-14T04:08:03.689Z,2.02
2023-04-14T04:10:34.712Z,1.98
2023-04-14T04:13:07.763Z,1.97
2023-04-14T04:15:37.650Z,1.72
2023-04-14T04:18:09.842Z,1.77
2023-04-14T04:20:43.180Z,1.66
2023-04-14T04:23:13.684Z,1.70
2023-04-14T04:25:43.756Z,1.71
2023-04-14T04:28:24.368Z,1.71
2023-04-14T04:30:55.624Z,1.72
2023-04-14T04:33:25.312Z,1.74
2023-04-14T04:35:58.143Z,1.81
2023-04-14T04:38:33.438Z,1.90
2023-04-14T04:41:02.739Z,1.92
2023-04-14T04:43:33.158Z,2.09
2023-04-14T04:46:19.298Z,2.28
2023-04-14T04:48:51.342Z,2.23
2023-04-14T04:51:21.847Z,2.40
2023-04-14T04:53:50.957Z,2.54
2023-04-14T04:56:20.048Z,2.59
2023-04-14T04:58:49.363Z,2.62
2023-04-14T05:01:19.250Z,2.46
2023-04-14T05:03:48.399Z,2.55
2023-04-14T05:06:17.573Z,2.51
2023-04-14T05:08:48.084Z,2.48
2023-04-14T05:11:17.201Z,2.56
2023-04-14T05:13:46.320Z,2.61
2023-04-14T05:16:16.906Z,2.72
2023-04-14T05:18:46.178Z,2.67
2023-04-14T05:21:16.200Z,2.85
2023-04-14T05:23:47.845Z,3.05
2023-04-14T05:26:31.052Z,3.28
2023-04-14T05:29:04.590Z,3.45
2023-04-14T05:31:33.763Z,3.58
2023-04-14T05:34:03.180Z,3.71
2023-04-14T05:36:32.436Z,3.95
2023-04-14T05:39:03.582Z,4.24
2023-04-14T05:41:32.681Z,4.22
2023-04-14T05:44:03.435Z,4.24
2023-04-14T05:46:32.867Z,4.20
2023-04-14T05:49:02.208Z,4.22
2023-04-14T05:51:32.461Z,4.29
2023-04-14T05:54:03.188Z,4.45
2023-04-14T05:56:32.414Z,4.48
2023-04-14T05:59:01.662Z,4.44
2023-04-14T06:01:31.035Z,4.74
2023-04-14T06:04:00.830Z,4.70
2023-04-14T06:06:32.381Z,4.86
2023-04-14T06:09:03.026Z,4.95
2023-04-14T06:11:32.294Z,4.91
2023-04-14T06:14:02.893Z,4.96
2023-04-14T06:16:32.368Z,5.05
2023-04-14T06:19:01.801Z,5.11
2023-04-14T06:21:31.437Z,5.39
2023-04-14T06:24:01.946Z,5.28
2023-04-14T06:26:31.261Z,5.48
2023-04-14T06:29:00.792Z,5.80
2023-04-14T06:31:30.225Z,6.05
2023-04-14T06:33:59.344Z,6.17
2023-04-14T06:36:28.725Z,6.09
2023-04-14T06:38:58.939Z,6.30
2023-04-14T06:41:29.664Z,6.87
2023-04-14T06:43:58.775Z,7.03
2023-04-14T06:46:28.113Z,7.33
2023-04-14T06:48:57.212Z,7.68
2023-04-14T06:51:27.126Z,7.46
2023-04-14T06:53:57.621Z,7.94
2023-04-14T06:56:28.291Z,8.07
2023-04-14T06:58:57.475Z,8.12
2023-04-14T07:01:26.683Z,8.24
2023-04-14T07:03:55.781Z,8.53
2023-04-14T07:06:24.972Z,8.79
2023-04-14T07:08:55.936Z,8.86
2023-04-14T07:11:25.005Z,9.15
2023-04-14T07:13:55.416Z,9.55
2023-04-14T07:16:24.720Z,9.42
2023-04-14T07:18:53.832Z,9.44
2023-04-14T07:21:22.883Z,9.64
2023-04-14T07:23:52.004Z,9.95
2023-04-14T07:26:21.457Z,9.92
2023-04-14T07:28:50.685Z,9.94
2023-04-14T07:31:21.219Z,9.72
2023-04-14T07:33:50.377Z,9.89
2023-04-14T07:36:19.504Z,9.44
2023-04-14T07:38:50.779Z,9.88
2023-04-14T07:41:20.504Z,9.85
2023-04-14T07:43:49.668Z,9.24
2023-04-14T07:46:20.296Z,9.97
2023-04-14T07:48:49.444Z,10.07
2023-04-14T07:51:18.639Z,10.23
2023-04-14T07:53:47.887Z,10.16
2023-04-14T07:56:17.033Z,10.35
2023-04-14T07:58:46.468Z,10.09
2023-04-14T08:01:15.599Z,10.24
2023-04-14T08:03:46.263Z,10.34
2023-04-14T08:06:16.728Z,10.68
2023-04-14T08:08:45.827Z,10.71
2023-04-14T08:11:14.946Z,10.75
2023-04-14T08:13:46.369Z,10.68
2023-04-14T08:16:15.481Z,10.97
2023-04-14T08:18:46.150Z,10.64
2023-04-14T08:21:16.634Z,11.35
2023-04-14T08:23:45.992Z,11.56
2023-04-14T08:26:15.463Z,11.68
2023-04-14T08:28:44.590Z,11.45
2023-04-14T08:31:13.696Z,11.90
2023-04-14T08:33:42.757Z,11.71
2023-04-14T08:36:13.463Z,11.58
2023-04-14T08:38:42.885Z,11.38
2023-04-14T08:41:15.731Z,11.34
2023-04-14T08:43:45.065Z,11.13
2023-04-14T08:46:16.856Z,11.50
2023-04-14T08:48:48.483Z,11.44
2023-04-14T08:51:31.949Z,11.54
2023-04-14T08:54:03.806Z,11.58
2023-04-14T08:56:43.317Z,12.04
2023-04-14T08:59:13.299Z,11.86
2023-04-14T09:01:42.355Z,11.49
2023-04-14T09:04:14.262Z,11.26
2023-04-14T09:06:45.028Z,11.22
2023-04-14T09:09:14.503Z,11.55
2023-04-14T09:11:43.989Z,11.54
2023-04-14T09:14:15.519Z,11.66
2023-04-14T09:16:45.323Z,11.65
2023-04-14T09:19:14.637Z,11.70
2023-04-14T09:21:53.567Z,11.78
2023-04-14T09:24:31.027Z,12.03
2023-04-14T09:27:04.942Z,12.08
2023-04-14T09:29:34.201Z,12.03
2023-04-14T09:32:03.935Z,11.97
2023-04-14T09:34:33.255Z,12.24
2023-04-14T09:37:05.653Z,11.90
2023-04-14T09:39:35.140Z,12.24
2023-04-14T09:42:05.129Z,12.19
2023-04-14T09:44:34.253Z,11.99
2023-04-14T09:47:05.068Z,11.61
2023-04-14T09:49:34.610Z,11.94
2023-04-14T09:52:08.538Z,12.11
2023-04-14T09:54:41.007Z,12.25
2023-04-14T09:57:10.322Z,12.17
2023-04-14T09:59:40.306Z,12.45
2023-04-14T10:02:10.908Z,12.40
2023-04-14T10:04:40.101Z,12.43
2023-04-14T10:07:12.192Z,12.35
2023-04-14T10:09:42.854Z,12.22
2023-04-14T10:12:13.785Z,12.48
2023-04-14T10:14:43.878Z,12.60
2023-04-14T10:17:13.619Z,12.59
2023-04-14T10:19:42.771Z,12.83
2023-04-14T10:22:13.741Z,12.80
2023-04-14T10:24:43.512Z,13.12
2023-04-14T10:27:13.250Z,13.35
2023-04-14T10:29:43.073Z,13.10
2023-04-14T10:32:17.548Z,13.19
2023-04-14T10:35:00.948Z,12.93
2023-04-14T10:37:31.667Z,12.69
2023-04-14T10:40:04.663Z,12.31
2023-04-14T10:42:54.980Z,12.33
2023-04-14T10:45:24.409Z,12.51
2023-04-14T10:47:53.666Z,12.74
2023-04-14T10:50:25.895Z,12.49
2023-04-14T10:52:58.770Z,12.70
2023-04-14T10:55:28.892Z,12.47
2023-04-14T10:58:06.278Z,12.93
2023-04-14T11:00:39.572Z,12.76
2023-04-14T11:03:11.739Z,12.58
2023-04-14T11:05:44.894Z,12.73
2023-04-14T11:08:17.233Z,13.01
2023-04-14T11:10:51.065Z,13.22
2023-04-14T11:13:20.557Z,13.42
2023-04-14T11:15:58.212Z,13.00
2023-04-14T11:18:35.656Z,13.46
2023-04-14T11:21:06.408Z,13.05
2023-04-14T11:23:38.337Z,13.14
2023-04-14T11:26:08.529Z,13.09
2023-04-14T11:28:39.205Z,12.85
2023-04-14T11:31:10.052Z,12.83
2023-04-14T11:33:41.381Z,13.13
2023-04-14T11:36:12.694Z,12.61
2023-04-14T11:38:45.750Z,13.13
2023-04-14T11:41:17.133Z,13.03
2023-04-14T11:43:48.745Z,12.77
2023-04-14T11:46:22.048Z,13.10
2023-04-14T11:48:56.484Z,13.04
2023-04-14T11:51:33.099Z,13.07
2023-04-14T11:54:03.726Z,13.27
2023-04-14T11:56:33.591Z,12.97
2023-04-14T11:59:04.214Z,13.02
2023-04-14T12:01:34.028Z,13.13
2023-04-14T12:04:04.253Z,13.13
2023-04-14T12:06:39.034Z,13.16
2023-04-14T12:09:11.764Z,13.09
2023-04-14T12:11:40.837Z,12.89
2023-04-14T12:14:10.062Z,12.21
2023-04-14T12:16:39.318Z,12.99
2023-04-14T12:19:08.477Z,12.66
2023-04-14T12:21:37.580Z,12.70
2023-04-14T12:24:06.928Z,12.43
2023-04-14T12:26:38.560Z,12.54
2023-04-14T12:29:08.144Z,12.65
2023-04-14T12:31:37.333Z,12.55
2023-04-14T12:34:06.752Z,12.06
2023-04-14T12:36:49.817Z,12.65
2023-04-14T12:39:21.972Z,12.51
2023-04-14T12:41:52.476Z,12.69
2023-04-14T12:44:24.295Z,12.98
2023-04-14T12:46:55.125Z,12.63
2023-04-14T12:49:36.085Z,12.94
2023-04-14T12:52:07.866Z,13.74
2023-04-14T12:54:51.840Z,13.17
2023-04-14T12:57:23.376Z,13.20
2023-04-14T12:59:52.999Z,12.82
2023-04-14T13:02:22.703Z,13.37
2023-04-14T13:04:52.016Z,12.34
2023-04-14T13:07:21.509Z,12.64
2023-04-14T13:09:51.290Z,13.10
2023-04-14T13:12:22.120Z,13.56
2023-04-14T13:14:51.216Z,13.66
2023-04-14T13:17:20.507Z,13.59
2023-04-14T13:19:49.588Z,13.41
2023-04-14T13:22:19.018Z,13.35
2023-04-14T13:24:49.852Z,13.29
2023-04-14T13:27:19.056Z,13.59
2023-04-14T13:29:49.512Z,13.32
2023-04-14T13:32:18.885Z,12.70
2023-04-14T13:34:49.164Z,13.06
2023-04-14T13:37:19.079Z,13.13
2023-04-14T13:39:48.151Z,13.75
2023-04-14T13:42:17.178Z,13.96
2023-04-14T13:44:47.055Z,13.20
2023-04-14T13:47:18.810Z,13.17
2023-04-14T13:49:47.967Z,13.03
2023-04-14T13:52:17.054Z,14.38
2023-04-14T13:54:46.264Z,13.53
2023-04-14T13:57:15.436Z,13.93
2023-04-14T13:59:44.486Z,14.22
2023-04-14T14:02:13.722Z,14.43
2023-04-14T14:04:44.342Z,14.10
2023-04-14T14:07:13.525Z,14.54
2023-04-14T14:09:44.315Z,14.50
2023-04-14T14:12:13.741Z,15.01
2023-04-14T14:14:42.883Z,15.26
2023-04-14T14:17:12.126Z,15.15
2023-04-14T14:19:41.264Z,15.27
2023-04-14T14:22:11.736Z,15.88
2023-04-14T14:24:42.521Z,14.80
2023-04-14T14:27:12.305Z,15.36
2023-04-14T14:29:41.416Z,15.26
2023-04-14T14:32:10.716Z,14.61
2023-04-14T14:34:39.972Z,14.11
2023-04-14T14:37:09.099Z,12.97
2023-04-14T14:39:39.581Z,13.06
2023-04-14T14:42:08.792Z,12.50
2023-04-14T14:44:38.671Z,12.61
2023-04-14T14:47:08.019Z,12.58
2023-04-14T14:49:39.365Z,12.71
2023-04-14T14:52:12.573Z,13.14
2023-04-14T14:54:42.936Z,13.50
2023-04-14T14:57:12.055Z,13.05
2023-04-14T14:59:41.827Z,13.52
2023-04-14T15:02:10.978Z,13.31
2023-04-14T15:04:40.581Z,12.83
2023-04-14T15:07:09.778Z,13.11
2023-04-14T15:09:38.835Z,13.96
2023-04-14T15:12:09.537Z,14.45
2023-04-14T15:14:38.667Z,14.94
2023-04-14T15:17:08.105Z,12.98
2023-04-14T15:19:37.187Z,12.52
2023-04-14T15:22:06.246Z,11.92
2023-04-14T15:24:35.330Z,12.70
2023-04-14T15:27:04.518Z,12.73
2023-04-14T15:29:34.978Z,12.61
2023-04-14T15:32:04.110Z,12.58
2023-04-14T15:34:33.184Z,12.59
2023-04-14T15:37:02.374Z,12.09
2023-04-14T15:39:31.476Z,12.56
2023-04-14T15:42:01.318Z,12.93
2023-04-14T15:44:30.481Z,12.65
2023-04-14T15:47:02.343Z,12.34
2023-04-14T15:49:31.531Z,12.22
2023-04-14T15:52:00.616Z,12.42
2023-04-14T15:54:29.919Z,12.02
2023-04-14T15:56:59.041Z,12.03
2023-04-14T15:59:29.832Z,12.90
2023-04-14T16:02:01.568Z,13.51
2023-04-14T16:04:30.949Z,13.46
2023-04-14T16:07:00.115Z,12.96
2023-04-14T16:09:29.185Z,12.68
2023-04-14T16:11:58.680Z,12.61
2023-04-14T16:14:31.247Z,12.53
2023-04-14T16:17:01.675Z,12.54
2023-04-14T16:19:30.844Z,12.39
2023-04-14T16:21:59.919Z,12.40
2023-04-14T16:24:29.090Z,12.31
2023-04-14T16:26:59.104Z,12.79
2023-04-14T16:29:28.613Z,13.16
2023-04-14T16:31:57.735Z,12.06
2023-04-14T16:34:28.187Z,12.02
2023-04-14T16:36:57.930Z,11.79
2023-04-14T16:39:27.898Z,11.66
2023-04-14T16:41:57.475Z,11.75
2023-04-14T16:44:26.577Z,11.42
2023-04-14T16:46:55.834Z,11.42
2023-04-14T16:49:25.235Z,11.16
2023-04-14T16:51:57.053Z,11.29
2023-04-14T16:54:28.183Z,11.30
2023-04-14T16:57:00.934Z,11.13
2023-04-14T16:59:30.708Z,11.18
2023-04-14T17:01:59.960Z,11.18
2023-04-14T17:04:29.375Z,10.67
2023-04-14T17:07:00.195Z,10.87
2023-04-14T17:09:29.240Z,10.66
2023-04-14T17:11:58.695Z,10.91
2023-04-14T17:14:27.935Z,10.35
2023-04-14T17:16:57.702Z,10.37
2023-04-14T17:19:26.877Z,10.33
2023-04-14T17:21:55.989Z,10.17
2023-04-14T17:24:26.453Z,10.08
2023-04-14T17:26:55.604Z,10.12
2023-04-14T17:29:24.702Z,10.13
2023-04-14T17:31:54.401Z,10.06
2023-04-14T17:34:23.719Z,10.21
2023-04-14T17:36:52.881Z,10.26
2023-04-14T17:39:26.472Z,10.23
2023-04-14T17:41:58.923Z,9.89
2023-04-14T17:44:33.251Z,9.76
2023-04-14T17:47:03.564Z,9.83
2023-04-14T17:49:33.603Z,9.60
2023-04-14T17:52:17.761Z,9.48
2023-04-14T17:54:51.943Z,9.67
2023-04-14T17:57:29.378Z,9.43
2023-04-14T18:00:01.408Z,9.41
2023-04-14T18:02:46.401Z,9.27
2023-04-14T18:05:22.767Z,9.34
2023-04-14T18:07:56.298Z,9.16
2023-04-14T18:10:39.776Z,9.05
2023-04-14T18:13:15.346Z,9.13
2023-04-14T18:15:47.871Z,9.11
2023-04-14T18:18:23.412Z,9.02
2023-04-14T18:21:03.024Z,9.11
2023-04-14T18:23:34.183Z,8.91
2023-04-14T18:28:46.947Z,8.83
2023-04-14T18:31:16.242Z,8.85
2023-04-14T18:33:50.482Z,8.81
2023-04-14T18:36:19.899Z,8.76
2023-04-14T18:38:49.472Z,8.67
2023-04-14T18:41:19.797Z,8.65
2023-04-14T18:43:50.349Z,8.67
2023-04-14T18:46:20.244Z,8.70
2023-04-14T18:48:49.456Z,8.54
2023-04-14T18:51:21.640Z,8.63
2023-04-14T18:53:54.337Z,8.54
2023-04-14T18:56:24.048Z,8.80
2023-04-14T18:58:55.831Z,8.81
2023-04-14T19:01:25.036Z,8.72
2023-04-14T19:03:57.693Z,8.73
2023-04-14T19:06:27.863Z,8.86
2023-04-14T19:08:57.327Z,8.82
2023-04-14T19:11:27.362Z,8.72
2023-04-14T19:13:59.540Z,8.71
2023-04-14T19:16:31.592Z,8.73
2023-04-14T19:19:01.071Z,8.77
2023-04-14T19:21:35.089Z,8.73
2023-04-14T19:24:04.576Z,8.80
2023-04-14T19:26:43.089Z,8.84
2023-04-14T19:29:14.850Z,8.78
2023-04-14T19:31:44.631Z,8.55
2023-04-14T19:34:13.821Z,8.61
2023-04-14T19:36:45.889Z,8.42
2023-04-14T19:39:17.199Z,8.50
2023-04-14T19:41:48.203Z,8.49
2023-04-14T19:44:21.582Z,8.53
2023-04-14T19:46:52.625Z,8.48
2023-04-14T19:49:23.721Z,8.56
2023-04-14T19:51:57.132Z,8.38
2023-04-14T19:54:28.079Z,8.40
2023-04-14T19:56:57.324Z,8.42
2023-04-14T19:59:33.404Z,8.43
2023-04-14T20:02:05.641Z,8.40
2023-04-14T20:04:34.882Z,8.62
2023-04-14T20:07:10.222Z,8.64
2023-04-14T20:09:48.753Z,8.45
2023-04-14T20:12:23.121Z,8.63
2023-04-14T20:14:55.741Z,8.60
2023-04-14T20:17:27.657Z,8.57
2023-04-14T20:20:05.997Z,8.53
2023-04-14T20:22:38.844Z,8.57
2023-04-14T20:25:08.849Z,8.45
2023-04-14T20:27:45.289Z,8.60
2023-04-14T20:30:22.897Z,8.66
2023-04-14T20:32:55.449Z,8.56
2023-04-14T20:35:25.914Z,8.52
2023-04-14T20:37:57.481Z,8.44
2023-04-14T20:40:30.077Z,8.45
2023-04-14T20:43:02.456Z,8.47
2023-04-14T20:45:39.965Z,8.46
2023-04-14T20:48:09.502Z,8.55
2023-04-14T20:50:42.876Z,8.65
2023-04-14T20:53:14.946Z,8.51
2023-04-14T20:55:44.580Z,8.49
2023-04-14T20:58:16.580Z,8.56
2023-04-14T21:00:47.661Z,8.39
2023-04-14T21:03:21.119Z,8.47
2023-04-14T21:05:56.120Z,8.50
2023-04-14T21:08:27.296Z,8.31
2023-04-14T21:11:15.622Z,8.38
2023-04-14T21:15:31.453Z,8.41
2023-04-14T21:16:48.384Z,8.41
2023-04-14T21:19:18.805Z,8.42
2023-04-14T21:21:48.327Z,8.41
2023-04-14T21:24:24.066Z,8.35
2023-04-14T21:26:56.786Z,8.40
2023-04-14T21:29:30.500Z,8.33
2023-04-14T21:32:02.590Z,8.34
2023-04-14T21:34:41.837Z,8.32
2023-04-14T21:37:18.967Z,8.32
2023-04-14T21:39:51.326Z,8.26
2023-04-14T21:42:25.985Z,8.28
2023-04-14T21:44:57.298Z,8.29
2023-04-14T21:47:30.864Z,8.39
2023-04-14T21:50:01.954Z,8.28
2023-04-14T21:52:33.403Z,8.18
2023-04-14T21:55:07.256Z,8.15
2023-04-14T21:57:48.770Z,8.23
2023-04-14T22:00:20.199Z,8.17
2023-04-14T22:02:58.347Z,8.16
2023-04-14T22:05:28.105Z,8.22
2023-04-14T22:08:07.055Z,8.14
2023-04-14T22:10:38.098Z,8.25
2023-04-14T22:13:08.163Z,8.28
2023-04-14T22:15:40.836Z,8.21
2023-04-14T22:18:14.515Z,8.13
2023-04-14T22:20:45.066Z,8.06
2023-04-14T22:23:16.569Z,7.93
2023-04-14T22:25:47.784Z,7.97
2023-04-14T22:28:19.486Z,8.06
2023-04-14T22:30:52.038Z,8.03
2023-04-14T22:33:23.224Z,8.00
2023-04-14T22:35:54.626Z,7.91
2023-04-14T22:38:23.745Z,7.90
2023-04-14T22:40:52.995Z,7.89
2023-04-14T22:43:22.389Z,7.91
2023-04-14T22:45:51.607Z,7.86
2023-04-14T22:48:22.058Z,7.73
2023-04-14T22:50:51.344Z,7.72
2023-04-14T22:53:20.875Z,7.76
2023-04-14T22:55:50.061Z,7.77
2023-04-14T22:58:20.188Z,7.77
2023-04-14T23:00:49.533Z,7.77
2023-04-14T23:03:19.232Z,7.71
2023-04-14T23:05:51.695Z,7.52
2023-04-14T23:08:20.828Z,7.67
2023-04-14T23:10:50.030Z,7.70
2023-04-14T23:13:19.182Z,7.64
2023-04-14T23:15:52.466Z,7.59
2023-04-14T23:18:21.861Z,7.53
2023-04-14T23:20:52.373Z,7.43
2023-04-14T23:23:21.492Z,7.46
2023-04-14T23:25:51.015Z,7.57
2023-04-14T23:28:20.384Z,7.45
2023-04-14T23:30:49.502Z,7.41
2023-04-14T23:33:18.655Z,7.35
2023-04-14T23:35:47.958Z,7.45
2023-04-14T23:38:19.478Z,7.43
2023-04-14T23:40:48.944Z,7.47
2023-04-14T23:43:18.259Z,7.36
2023-04-14T23:45:47.436Z,7.47
2023-04-14T23:48:16.632Z,7.46
2023-04-14T23:51:01.913Z,7.27
2023-04-14T23:53:36.454Z,7.42
2023-04-14T23:56:06.523Z,7.38
2023-04-14T23:58:35.619Z,7.30
